createdAt,value
2024-02-10T00:00:21.576Z,3.50
2024-02-10T00:02:50.318Z,5.20
2024-02-10T00:05:17.586Z,5.50
2024-02-10T00:07:52.142Z,5.60
2024-02-10T00:10:21.598Z,4.40
2024-02-10T00:12:48.592Z,5.60
2024-02-10T00:15:15.862Z,7.60
2024-02-10T00:17:42.807Z,3.00
2024-02-10T00:20:17.120Z,5.80
2024-02-10T00:22:44.528Z,5.10
2024-02-10T00:25:11.556Z,6.80
2024-02-10T00:27:38.816Z,4.50
2024-02-10T00:30:05.915Z,3.80
2024-02-10T00:32:34.300Z,4.80
2024-02-10T00:35:01.399Z,4.70
2024-02-10T00:37:28.443Z,5.00
2024-02-10T00:39:55.963Z,4.40
2024-02-10T00:42:25.372Z,3.00
2024-02-10T00:44:52.524Z,6.40
2024-02-10T00:47:19.413Z,5.80
2024-02-10T00:49:46.541Z,5.10
2024-02-10T00:52:18.501Z,6.30
2024-02-10T00:54:48.655Z,5.50
2024-02-10T00:57:15.533Z,5.50
2024-02-10T00:59:42.505Z,5.30
2024-02-10T01:02:09.847Z,5.40
2024-02-10T01:04:37.152Z,5.80
2024-02-10T01:07:04.155Z,4.60
2024-02-10T01:09:31.234Z,4.30
2024-02-10T01:11:58.081Z,3.40
2024-02-10T01:14:30.979Z,5.90
2024-02-10T01:16:58.816Z,4.50
2024-02-10T01:19:29.378Z,5.00
2024-02-10T01:21:57.312Z,6.00
2024-02-10T01:24:29.957Z,4.20
2024-02-10T01:26:56.915Z,5.80
2024-02-10T01:29:25.748Z,4.80
2024-02-10T01:31:52.653Z,7.20
2024-02-10T01:34:19.753Z,4.30
2024-02-10T01:36:46.734Z,4.30
2024-02-10T01:39:13.712Z,5.00
2024-02-10T01:41:40.665Z,5.00
2024-02-10T01:44:07.611Z,5.30
2024-02-10T01:46:35.737Z,3.60
2024-02-10T01:49:04.065Z,8.50
2024-02-10T01:51:31.261Z,4.90
2024-02-10T01:53:59.171Z,6.00
2024-02-10T01:56:30.855Z,4.60
2024-02-10T01:58:58.327Z,4.50
2024-02-10T02:01:25.281Z,6.00
2024-02-10T02:03:52.643Z,3.00
2024-02-10T02:06:20.194Z,8.10
2024-02-10T02:08:50.868Z,4.50
2024-02-10T02:11:18.217Z,7.20
2024-02-10T02:13:45.376Z,5.30
2024-02-10T02:16:13.898Z,6.30
2024-02-10T02:18:42.971Z,3.40
2024-02-10T02:21:10.128Z,6.00
2024-02-10T02:23:37.018Z,5.60
2024-02-10T02:26:03.970Z,4.50
2024-02-10T02:28:30.816Z,4.70
2024-02-10T02:30:58.289Z,6.50
2024-02-10T02:33:25.179Z,8.10
2024-02-10T02:35:55.155Z,8.50
2024-02-10T02:38:24.875Z,8.60
2024-02-10T02:40:51.871Z,9.40
2024-02-10T02:43:18.798Z,10.60
2024-02-10T02:45:45.748Z,8.90
2024-02-10T02:48:12.895Z,7.70
2024-02-10T02:50:41.438Z,9.60
2024-02-10T02:53:08.407Z,9.70
2024-02-10T02:55:35.356Z,11.10
2024-02-10T02:58:03.285Z,8.20
2024-02-10T03:00:33.434Z,6.60
2024-02-10T03:03:04.402Z,8.60
2024-02-10T03:05:35.123Z,10.30
2024-02-10T03:08:03.263Z,9.20
2024-02-10T03:10:30.997Z,6.90
2024-02-10T03:12:58.214Z,7.30
2024-02-10T03:15:25.585Z,7.90
2024-02-10T03:17:52.611Z,6.90
2024-02-10T03:20:25.330Z,8.20
2024-02-10T03:23:03.624Z,8.50
2024-02-10T03:25:34.132Z,9.50
2024-02-10T03:28:04.981Z,10.90
2024-02-10T03:30:32.146Z,9.50
2024-02-10T03:33:03.250Z,9.40
2024-02-10T03:35:32.818Z,11.30
2024-02-10T03:37:59.973Z,8.80
2024-02-10T03:40:27.195Z,6.50
2024-02-10T03:42:54.255Z,9.70
2024-02-10T03:45:23.230Z,9.70
2024-02-10T03:47:52.425Z,10.40
2024-02-10T03:50:34.120Z,8.30
2024-02-10T03:53:01.295Z,7.50
2024-02-10T03:55:31.550Z,11.50
2024-02-10T03:58:00.794Z,10.30
2024-02-10T04:00:30.020Z,10.10
2024-02-10T04:02:57.251Z,12.00
2024-02-10T04:05:24.336Z,10.00
2024-02-10T04:07:52.765Z,8.20
2024-02-10T04:10:20.633Z,8.20
2024-02-10T04:12:50.465Z,10.60
2024-02-10T04:15:17.488Z,7.70
2024-02-10T04:17:57.190Z,6.60
2024-02-10T04:20:30.353Z,7.10
2024-02-10T04:22:58.709Z,7.60
2024-02-10T04:25:32.891Z,8.00
2024-02-10T04:28:06.072Z,7.30
2024-02-10T04:30:33.056Z,6.00
2024-02-10T04:33:00.143Z,6.90
2024-02-10T04:35:27.242Z,9.30
2024-02-10T04:37:55.407Z,9.30
2024-02-10T04:40:26.667Z,8.60
2024-02-10T04:42:55.351Z,8.70
2024-02-10T04:45:29.291Z,7.40
2024-02-10T04:47:58.172Z,8.90
2024-02-10T04:50:25.550Z,15.90
2024-02-10T04:52:52.700Z,9.60
2024-02-10T04:55:22.884Z,10.00
2024-02-10T04:57:49.899Z,15.70
2024-02-10T05:00:23.334Z,12.50
2024-02-10T05:02:57.449Z,8.30
2024-02-10T05:05:24.571Z,9.40
2024-02-10T05:07:59.970Z,11.80
2024-02-10T05:10:28.478Z,9.40
2024-02-10T05:15:41.010Z,9.60
2024-02-10T05:18:10.550Z,10.20
2024-02-10T05:20:37.805Z,9.30
2024-02-10T05:23:06.177Z,8.50
2024-02-10T05:25:37.225Z,10.90
2024-02-10T05:28:04.838Z,10.20
2024-02-10T05:30:31.893Z,9.10
2024-02-10T05:33:08.922Z,12.00
2024-02-10T05:35:38.970Z,7.20
2024-02-10T05:38:06.030Z,8.00
2024-02-10T05:40:33.197Z,10.80
2024-02-10T05:43:01.215Z,9.80
2024-02-10T05:45:29.474Z,10.10
2024-02-10T05:47:57.005Z,9.20
2024-02-10T05:50:25.322Z,10.10
2024-02-10T05:52:55.328Z,10.20
2024-02-10T05:55:27.660Z,8.50
2024-02-10T05:58:00.578Z,8.50
2024-02-10T06:00:27.730Z,8.20
2024-02-10T06:02:55.493Z,9.00
2024-02-10T06:05:25.693Z,10.90
2024-02-10T06:07:56.069Z,8.00
2024-02-10T06:10:23.290Z,8.60
2024-02-10T06:12:51.252Z,9.60
2024-02-10T06:15:19.419Z,9.40
2024-02-10T06:17:55.962Z,7.20
2024-02-10T06:20:26.418Z,12.40
2024-02-10T06:22:54.900Z,10.90
2024-02-10T06:25:29.209Z,8.20
2024-02-10T06:28:00.891Z,9.10
2024-02-10T06:30:32.234Z,8.10
2024-02-10T06:32:59.880Z,9.90
2024-02-10T06:35:27.705Z,10.90
2024-02-10T06:37:56.633Z,8.60
2024-02-10T06:40:24.598Z,7.70
2024-02-10T06:42:54.205Z,9.30
2024-02-10T06:45:28.860Z,8.60
2024-02-10T06:47:56.046Z,8.70
2024-02-10T06:50:28.439Z,7.50
2024-02-10T06:52:56.551Z,7.60
2024-02-10T06:55:28.362Z,8.40
2024-02-10T06:57:59.110Z,10.70
2024-02-10T07:00:26.401Z,12.60
2024-02-10T07:02:55.464Z,14.70
2024-02-10T07:05:24.701Z,21.30
2024-02-10T07:07:57.333Z,22.80
2024-02-10T07:10:25.095Z,27.20
2024-02-10T07:12:57.519Z,23.10
2024-02-10T07:15:27.376Z,21.50
2024-02-10T07:17:54.999Z,19.50
2024-02-10T07:20:25.347Z,15.00
2024-02-10T07:22:56.801Z,13.10
2024-02-10T07:25:24.494Z,12.80
2024-02-10T07:27:52.434Z,10.90
2024-02-10T07:30:20.189Z,8.40
2024-02-10T07:32:49.184Z,8.50
2024-02-10T07:35:17.752Z,10.00
2024-02-10T07:37:45.661Z,9.60
2024-02-10T07:40:14.473Z,16.20
2024-02-10T07:42:41.674Z,19.80
2024-02-10T07:45:09.238Z,20.10
2024-02-10T07:47:36.211Z,34.90
2024-02-10T07:50:05.100Z,28.40
2024-02-10T07:52:33.183Z,19.70
2024-02-10T07:55:00.485Z,16.20
2024-02-10T07:57:27.936Z,20.40
2024-02-10T07:59:55.604Z,26.90
2024-02-10T08:02:32.507Z,40.70
2024-02-10T08:05:01.011Z,51.00
2024-02-10T08:07:37.000Z,38.00
2024-02-10T08:10:08.424Z,32.20
2024-02-10T08:12:37.251Z,35.40
2024-02-10T08:15:04.433Z,78.30
2024-02-10T08:17:32.840Z,110.90
2024-02-10T08:20:04.424Z,82.10
2024-02-10T08:22:37.491Z,57.10
2024-02-10T08:25:06.009Z,62.50
2024-02-10T08:27:33.189Z,59.00
2024-02-10T08:30:01.110Z,47.10
2024-02-10T08:32:36.294Z,33.80
2024-02-10T08:35:03.442Z,26.50
2024-02-10T08:37:31.637Z,23.50
2024-02-10T08:39:59.551Z,23.90
2024-02-10T08:42:28.780Z,19.40
2024-02-10T08:44:55.877Z,19.10
2024-02-10T08:47:22.954Z,17.40
2024-02-10T08:49:51.282Z,24.40
2024-02-10T08:52:24.052Z,24.10
2024-02-10T08:54:52.489Z,21.70
2024-02-10T08:57:25.843Z,23.10
2024-02-10T08:59:53.817Z,25.90
2024-02-10T09:02:28.649Z,30.70
2024-02-10T09:04:55.737Z,15.80
2024-02-10T09:07:22.772Z,23.90
2024-02-10T09:09:49.913Z,15.70
2024-02-10T09:12:18.657Z,11.70
2024-02-10T09:14:50.182Z,14.80
2024-02-10T09:17:20.183Z,10.60
2024-02-10T09:19:47.196Z,13.50
2024-02-10T09:22:15.850Z,14.20
2024-02-10T09:24:42.902Z,22.40
2024-02-10T09:27:12.805Z,22.50
2024-02-10T09:29:39.886Z,11.30
2024-02-10T09:32:07.990Z,12.50
2024-02-10T09:34:35.669Z,20.40
2024-02-10T09:37:02.813Z,13.50
2024-02-10T09:39:29.912Z,8.60
2024-02-10T09:42:05.606Z,12.30
2024-02-10T09:44:36.017Z,9.20
2024-02-10T09:47:12.964Z,11.00
2024-02-10T09:49:40.287Z,10.70
2024-02-10T09:52:12.772Z,15.80
2024-02-10T09:54:40.821Z,14.40
2024-02-10T09:57:12.938Z,12.10
2024-02-10T09:59:40.737Z,15.00
2024-02-10T10:02:10.322Z,9.70
2024-02-10T10:04:37.376Z,15.90
2024-02-10T10:07:08.674Z,14.90
2024-02-10T10:09:35.743Z,12.60
2024-02-10T10:12:02.688Z,15.80
2024-02-10T10:14:33.826Z,15.60
2024-02-10T10:17:05.353Z,13.30
2024-02-10T10:19:33.216Z,10.70
2024-02-10T10:22:01.695Z,10.40
2024-02-10T10:24:29.583Z,12.30
2024-02-10T10:27:03.894Z,11.00
2024-02-10T10:29:32.894Z,14.50
2024-02-10T10:32:01.450Z,14.30
2024-02-10T10:34:33.551Z,12.60
2024-02-10T10:37:06.084Z,17.20
2024-02-10T10:39:37.599Z,10.60
2024-02-10T10:42:04.943Z,11.10
2024-02-10T10:44:33.664Z,12.90
2024-02-10T10:47:01.612Z,12.30
2024-02-10T10:49:28.807Z,13.10
2024-02-10T10:52:05.560Z,11.50
2024-02-10T10:54:41.005Z,17.80
2024-02-10T10:57:17.845Z,9.90
2024-02-10T10:59:57.158Z,12.20
2024-02-10T11:02:37.453Z,12.60
2024-02-10T11:05:14.587Z,13.70
2024-02-10T11:07:44.317Z,10.50
2024-02-10T11:10:12.861Z,12.90
2024-02-10T11:12:44.313Z,12.90
2024-02-10T11:15:20.001Z,15.20
2024-02-10T11:18:01.305Z,9.50
2024-02-10T11:20:31.911Z,17.00
2024-02-10T11:23:09.341Z,12.90
2024-02-10T11:25:38.196Z,16.20
2024-02-10T11:28:07.265Z,17.30
2024-02-10T11:33:24.643Z,15.90
2024-02-10T11:35:54.387Z,17.40
2024-02-10T11:38:25.053Z,13.10
2024-02-10T11:40:52.546Z,15.90
2024-02-10T11:43:19.769Z,15.40
2024-02-10T11:48:34.034Z,17.30
2024-02-10T11:51:04.602Z,16.10
2024-02-10T11:53:35.348Z,10.20
2024-02-10T11:56:08.132Z,16.90
2024-02-10T11:58:41.233Z,14.40
2024-02-10T12:01:09.370Z,16.40
2024-02-10T12:03:36.379Z,16.40
2024-02-10T12:06:04.840Z,17.20
2024-02-10T12:11:18.418Z,15.50
2024-02-10T12:13:47.298Z,19.40
2024-02-10T12:16:19.510Z,12.80
2024-02-10T12:18:46.929Z,13.80
2024-02-10T12:21:15.882Z,14.10
2024-02-10T12:23:48.245Z,13.00
2024-02-10T12:26:15.904Z,11.60
2024-02-10T12:28:45.817Z,12.50
2024-02-10T12:31:13.646Z,13.90
2024-02-10T12:33:44.277Z,19.00
2024-02-10T12:36:11.528Z,17.50
2024-02-10T12:38:39.966Z,37.60
2024-02-10T12:41:07.003Z,33.60
2024-02-10T12:43:34.105Z,21.10
2024-02-10T12:46:01.161Z,17.80
2024-02-10T12:48:28.187Z,21.80
2024-02-10T12:50:57.995Z,20.70
2024-02-10T12:53:29.949Z,20.10
2024-02-10T12:55:57.251Z,18.90
2024-02-10T12:58:29.869Z,22.80
2024-02-10T13:01:01.669Z,22.00
2024-02-10T13:03:28.657Z,17.40
2024-02-10T13:05:56.412Z,19.10
2024-02-10T13:08:23.486Z,15.50
2024-02-10T13:10:50.569Z,18.20
2024-02-10T13:13:18.023Z,18.50
2024-02-10T13:15:44.987Z,16.10
2024-02-10T13:18:15.759Z,20.50
2024-02-10T13:20:42.926Z,14.50
2024-02-10T13:23:10.136Z,20.10
2024-02-10T13:25:44.425Z,16.40
2024-02-10T13:28:13.594Z,16.80
2024-02-10T13:30:42.876Z,14.30
2024-02-10T13:33:09.999Z,13.00
2024-02-10T13:35:42.893Z,16.10
2024-02-10T13:38:28.358Z,17.40
2024-02-10T13:41:13.972Z,15.80
2024-02-10T13:44:00.860Z,13.20
2024-02-10T13:46:46.796Z,15.10
2024-02-10T13:49:32.313Z,16.60
2024-02-10T13:52:20.385Z,11.50
2024-02-10T13:55:05.882Z,15.90
2024-02-10T13:57:51.622Z,12.80
2024-02-10T14:00:32.249Z,12.70
2024-02-10T14:03:02.992Z,18.90
2024-02-10T14:05:44.331Z,13.00
2024-02-10T14:08:35.842Z,12.40
2024-02-10T14:11:04.472Z,14.40
2024-02-10T14:13:31.978Z,15.50
2024-02-10T14:16:00.416Z,11.70
2024-02-10T14:18:30.647Z,17.60
2024-02-10T14:21:03.181Z,9.50
2024-02-10T14:23:30.630Z,13.60
2024-02-10T14:26:13.797Z,12.90
2024-02-10T14:28:51.516Z,10.50
2024-02-10T14:31:19.810Z,12.60
2024-02-10T14:33:51.306Z,10.60
2024-02-10T14:36:36.591Z,14.40
2024-02-10T14:39:16.718Z,16.10
2024-02-10T14:41:45.125Z,13.40
2024-02-10T14:44:12.291Z,13.70
2024-02-10T14:46:49.353Z,10.50
2024-02-10T14:49:17.041Z,13.20
2024-02-10T14:51:47.011Z,14.80
2024-02-10T14:54:16.333Z,11.70
2024-02-10T14:56:43.333Z,18.70
2024-02-10T14:59:13.615Z,13.10
2024-02-10T15:01:43.706Z,14.10
2024-02-10T15:04:13.366Z,13.30
2024-02-10T15:06:42.281Z,13.10
2024-02-10T15:09:09.856Z,15.70
2024-02-10T15:11:41.105Z,15.50
2024-02-10T15:14:10.765Z,13.20
2024-02-10T15:16:38.548Z,27.20
2024-02-10T15:19:05.649Z,12.60
2024-02-10T15:21:34.452Z,15.90
2024-02-10T15:24:08.393Z,12.90
2024-02-10T15:26:35.510Z,15.40
2024-02-10T15:29:03.213Z,27.60
2024-02-10T15:31:35.815Z,18.50
2024-02-10T15:34:05.999Z,8.10
2024-02-10T15:36:38.455Z,7.00
2024-02-10T15:39:11.771Z,8.80
2024-02-10T15:41:45.339Z,12.00
2024-02-10T15:44:13.561Z,10.60
2024-02-10T15:46:42.526Z,12.60
2024-02-10T15:49:13.094Z,14.90
2024-02-10T15:51:40.350Z,9.10
2024-02-10T15:54:09.937Z,9.80
2024-02-10T15:56:42.704Z,11.30
2024-02-10T15:59:09.800Z,6.30
2024-02-10T16:01:37.420Z,12.50
2024-02-10T16:04:09.915Z,11.40
2024-02-10T16:06:40.367Z,10.50
2024-02-10T16:09:07.509Z,10.20
2024-02-10T16:11:34.819Z,11.50
2024-02-10T16:14:01.843Z,14.20
2024-02-10T16:16:29.344Z,9.60
2024-02-10T16:18:58.824Z,11.50
2024-02-10T16:21:30.261Z,11.60
2024-02-10T16:23:58.032Z,15.60
2024-02-10T16:26:25.390Z,18.40
2024-02-10T16:28:57.310Z,20.00
2024-02-10T16:31:26.027Z,20.80
2024-02-10T16:33:59.736Z,16.50
2024-02-10T16:36:32.284Z,15.90
2024-02-10T16:39:02.116Z,14.30
2024-02-10T16:41:35.126Z,19.60
2024-02-10T16:44:02.837Z,12.60
2024-02-10T16:46:30.159Z,16.70
2024-02-10T16:48:57.348Z,17.30
2024-02-10T16:51:34.492Z,28.70
2024-02-10T16:54:11.100Z,15.60
2024-02-10T16:56:39.485Z,15.20
2024-02-10T16:59:06.639Z,15.00
2024-02-10T17:01:33.869Z,17.00
2024-02-10T17:04:05.303Z,17.20
2024-02-10T17:06:38.017Z,13.40
2024-02-10T17:09:06.667Z,11.40
2024-02-10T17:11:35.228Z,12.50
2024-02-10T17:14:07.462Z,13.40
2024-02-10T17:16:34.661Z,14.40
2024-02-10T17:19:06.135Z,17.10
2024-02-10T17:21:35.285Z,15.00
2024-02-10T17:24:02.516Z,15.40
2024-02-10T17:26:30.380Z,22.20
2024-02-10T17:29:03.447Z,18.00
2024-02-10T17:31:30.475Z,19.30
2024-02-10T17:33:57.474Z,20.40
2024-02-10T17:36:24.502Z,19.50
2024-02-10T17:38:55.793Z,17.90
2024-02-10T17:41:25.745Z,18.90
2024-02-10T17:43:52.822Z,14.60
2024-02-10T17:46:20.459Z,20.60
2024-02-10T17:48:47.817Z,21.20
2024-02-10T17:51:15.594Z,20.40
2024-02-10T17:53:44.113Z,21.80
2024-02-10T17:56:13.449Z,21.80
2024-02-10T17:58:46.146Z,27.60
2024-02-10T18:01:15.672Z,25.40
2024-02-10T18:03:42.973Z,29.80
2024-02-10T18:06:13.610Z,32.80
2024-02-10T18:08:41.954Z,28.80
2024-02-10T18:11:16.220Z,33.90
2024-02-10T18:13:49.777Z,31.70
2024-02-10T18:16:17.829Z,27.00
2024-02-10T18:18:50.427Z,32.20
2024-02-10T18:21:20.839Z,32.20
2024-02-10T18:23:49.404Z,29.90
2024-02-10T18:26:21.083Z,28.30
2024-02-10T18:28:50.887Z,22.70
2024-02-10T18:31:19.273Z,18.20
2024-02-10T18:33:49.779Z,19.80
2024-02-10T18:36:17.051Z,18.90
2024-02-10T18:38:52.518Z,25.60
2024-02-10T18:41:19.797Z,18.00
2024-02-10T18:43:47.089Z,19.00
2024-02-10T18:46:14.722Z,17.10
2024-02-10T18:48:51.312Z,21.80
2024-02-10T18:51:22.075Z,20.40
2024-02-10T18:53:49.550Z,21.80
2024-02-10T18:56:26.982Z,19.20
2024-02-10T18:58:54.680Z,20.30
2024-02-10T19:01:27.215Z,20.40
2024-02-10T19:03:55.944Z,18.50
2024-02-10T19:06:26.069Z,16.80
2024-02-10T19:08:55.326Z,21.90
2024-02-10T19:11:26.329Z,17.50
2024-02-10T19:13:55.889Z,22.50
2024-02-10T19:16:23.628Z,18.40
2024-02-10T19:18:53.102Z,23.50
2024-02-10T19:21:21.183Z,19.00
2024-02-10T19:23:50.124Z,19.40
2024-02-10T19:26:21.657Z,20.30
2024-02-10T19:28:49.589Z,15.50
2024-02-10T19:31:19.180Z,18.10
2024-02-10T19:33:50.608Z,18.60
2024-02-10T19:36:21.506Z,20.10
2024-02-10T19:38:49.608Z,16.80
2024-02-10T19:41:19.961Z,14.60
2024-02-10T19:43:51.957Z,18.30
2024-02-10T19:46:19.837Z,16.50
2024-02-10T19:48:51.048Z,25.70
2024-02-10T19:51:21.009Z,19.50
2024-02-10T19:53:54.815Z,13.60
2024-02-10T19:56:22.695Z,14.50
2024-02-10T19:58:56.750Z,16.10
2024-02-10T20:04:13.393Z,11.00
2024-02-10T20:06:43.112Z,13.20
2024-02-10T20:09:11.103Z,11.90
2024-02-10T20:11:40.700Z,13.30
2024-02-10T20:14:09.187Z,16.60
2024-02-10T20:16:37.303Z,15.50
2024-02-10T20:19:11.542Z,15.60
2024-02-10T20:21:40.493Z,12.50
2024-02-10T20:24:08.108Z,12.10
2024-02-10T20:26:36.219Z,13.20
2024-02-10T20:29:05.472Z,11.50
2024-02-10T20:31:32.991Z,13.70
2024-02-10T20:34:01.515Z,11.70
2024-02-10T20:36:29.136Z,21.30
2024-02-10T20:38:58.516Z,15.20
2024-02-10T20:41:26.312Z,14.10
2024-02-10T20:43:56.296Z,12.30
2024-02-10T20:46:27.740Z,14.20
2024-02-10T20:48:56.659Z,14.10
2024-02-10T20:51:30.997Z,19.80
2024-02-10T20:54:02.480Z,15.90
2024-02-10T20:56:30.042Z,16.40
2024-02-10T20:58:58.988Z,19.10
2024-02-10T21:01:29.559Z,11.40
2024-02-10T21:03:58.130Z,16.40
2024-02-10T21:06:28.229Z,12.40
2024-02-10T21:08:56.098Z,17.30
2024-02-10T21:11:23.844Z,13.90
2024-02-10T21:13:51.991Z,9.90
2024-02-10T21:16:22.380Z,14.80
2024-02-10T21:21:40.017Z,13.40
2024-02-10T21:24:13.031Z,14.60
2024-02-10T21:26:41.788Z,9.70
2024-02-10T21:29:14.551Z,11.90
2024-02-10T21:31:45.743Z,12.20
2024-02-10T21:34:13.998Z,11.50
2024-02-10T21:36:56.376Z,12.70
2024-02-10T21:39:27.816Z,8.70
2024-02-10T21:41:59.168Z,12.20
2024-02-10T21:44:26.926Z,10.30
2024-02-10T21:46:55.042Z,10.20
2024-02-10T21:49:38.191Z,14.00
2024-02-10T21:52:11.738Z,10.80
2024-02-10T21:54:39.157Z,12.90
2024-02-10T21:57:11.912Z,8.20
2024-02-10T21:59:38.964Z,13.60
2024-02-10T22:02:08.180Z,11.70
2024-02-10T22:04:35.342Z,14.30
2024-02-10T22:07:07.488Z,14.40
2024-02-10T22:09:34.566Z,10.30
2024-02-10T22:12:03.784Z,11.50
2024-02-10T22:14:31.139Z,11.50
2024-02-10T22:16:58.835Z,14.10
2024-02-10T22:19:26.174Z,13.10
2024-02-10T22:21:55.558Z,9.00
2024-02-10T22:24:30.984Z,12.10
2024-02-10T22:26:57.970Z,10.00
2024-02-10T22:29:26.340Z,11.80
2024-02-10T22:31:53.541Z,15.70
2024-02-10T22:34:20.779Z,13.20
2024-02-10T22:36:48.946Z,14.50
2024-02-10T22:39:26.465Z,14.10
2024-02-10T22:42:00.164Z,14.10
2024-02-10T22:44:30.187Z,11.90
2024-02-10T22:47:07.005Z,12.10
2024-02-10T22:49:39.909Z,11.90
2024-02-10T22:52:09.648Z,11.40
2024-02-10T22:54:41.975Z,9.90
2024-02-10T22:57:08.993Z,13.60
2024-02-10T22:59:36.056Z,14.40
2024-02-10T23:02:05.180Z,10.90
2024-02-10T23:04:32.238Z,15.40
2024-02-10T23:07:00.161Z,11.40
2024-02-10T23:09:35.503Z,12.90
2024-02-10T23:12:05.067Z,16.20
2024-02-10T23:14:32.204Z,15.20
2024-02-10T23:17:02.824Z,12.90
2024-02-10T23:19:31.307Z,14.00
2024-02-10T23:21:58.676Z,12.30
2024-02-10T23:24:31.527Z,10.80
2024-02-10T23:27:00.077Z,13.10
2024-02-10T23:29:32.325Z,11.90
2024-02-10T23:32:02.730Z,17.50
2024-02-10T23:34:34.561Z,14.80
2024-02-10T23:37:04.569Z,15.30
2024-02-10T23:39:35.017Z,12.90
2024-02-10T23:42:02.300Z,13.00
2024-02-10T23:44:30.033Z,12.00
2024-02-10T23:46:57.077Z,13.60
2024-02-10T23:49:24.098Z,10.10
2024-02-10T23:51:54.344Z,12.10
2024-02-10T23:54:21.377Z,12.90
2024-02-10T23:56:48.377Z,12.00
2024-02-10T23:59:15.408Z,10.70
